Hamilton, Virginia
Current Conditions -  °F | °C
As of 6:15 AM on Wednesday 26 Nov 2014 (Local Time) from KJYO Reporting Station
Moderate Rain Moderate Rain  
Wind Chill: 35°   Ceiling: 3800
Heat Index: 41°   Visibility: 4mi
Dew Point: 39°   Wind: 9mph
Humidity: 93%   Direction: 30°NNE
Pressure: 30.1"   Gusts: NA
Location:  39.14°N, 77.67°W
Report Text: KJYO 261115Z AUTO 03008KT 4SM RA OVC038 05/04 A3010 RMK AO2 P0003
Loading
Personal Weather Stations






























Interactive Weather Map New forecast layout! Learn more

10-Day Weather Forecast

Advertisements
Track Severe Weather on mobile